Fords Creek, Mississippi
Current Conditions -  °F | °C
As of 10:53 AM on Thursday 18 Dec 2014 (Local Time) from KHBG Reporting Station
Few Clouds Few Clouds  
Wind Chill: 57°   Ceiling: Unl
Heat Index: 57°   Visibility: 10mi
Dew Point: 41°   Wind: 10mph
Humidity: 55%   Direction: 130°SE
Pressure: 30.2"   Gusts: NA
Location:  30.8781°N, 89.5858°W
Report Text: KHBG 181653Z AUTO 13009KT 10SM FEW110 14/05 A3020 RMK AO2 SLP227 T01390050
Loading
Personal Weather Stations






























Interactive Weather Map New forecast layout! Learn more

10-Day Weather Forecast

Advertisements
Track Severe Weather on mobile